Time;durP1;ratioP1;P1;durP2;ratioP2;P2;SDS_P1;SDS_P2;PMS_P1;PMS_P2;Temp;Humidity;BMP_temperature;BMP_pressure;BME280_temperature;BME280_humidity;BME280_pressure;Samples;Min_cycle;Max_cycle;Signal;HPM_P1;HPM_P2
2023/03/16 00:00:15;;;;;;;16.48;7.15;;;;;;;-0.06;100.00;95854.59;5021988;28;20041;-74
2023/03/16 00:03:00;;;;;;;13.82;5.78;;;;;;;-0.02;100.00;95850.63;5013523;28;20081;-75
2023/03/16 00:05:26;;;;;;;17.98;7.05;;;;;;;-0.09;100.00;95855.78;5019714;28;20048;-74
2023/03/16 00:07:51;;;;;;;16.10;6.55;;;;;;;-0.11;100.00;95846.63;5024738;28;20042;-74
2023/03/16 00:10:17;;;;;;;15.48;6.95;;;;;;;-0.06;100.00;95844.25;5020171;28;20092;-74
2023/03/16 00:12:43;;;;;;;17.50;6.72;;;;;;;-0.09;100.00;95839.47;5015097;28;20088;-75
2023/03/16 00:15:11;;;;;;;13.50;6.93;;;;;;;-0.18;100.00;95842.22;5023185;28;20033;-74
2023/03/16 00:17:36;;;;;;;12.07;6.05;;;;;;;-0.24;100.00;95848.16;5024765;28;20477;-74
2023/03/16 00:20:06;;;;;;;14.65;6.97;;;;;;;-0.26;100.00;95844.97;5026439;28;20045;-74
2023/03/16 00:22:32;;;;;;;15.80;6.53;;;;;;;-0.22;100.00;95835.81;5015189;28;20125;-74
2023/03/16 00:24:58;;;;;;;14.20;6.63;;;;;;;-0.22;100.00;95837.63;5020048;28;20046;-74
2023/03/16 00:27:25;;;;;;;12.90;6.30;;;;;;;-0.26;100.00;95844.97;5018966;28;20061;-74
2023/03/16 00:29:55;;;;;;;11.80;5.78;;;;;;;-0.29;100.00;95845.34;5017459;28;20033;-75
2023/03/16 00:32:24;;;;;;;10.95;5.65;;;;;;;-0.33;100.00;95846.75;5010782;28;20046;-75
2023/03/16 00:34:50;;;;;;;12.05;5.90;;;;;;;-0.44;100.00;95839.53;5018614;28;20531;-74
2023/03/16 00:37:17;;;;;;;14.25;6.55;;;;;;;-0.51;100.00;95836.91;5025621;28;20038;-74
2023/03/16 00:39:45;;;;;;;10.52;5.68;;;;;;;-0.41;100.00;95841.72;5016289;28;20049;-74
2023/03/16 00:42:13;;;;;;;14.55;6.38;;;;;;;-0.44;100.00;95836.94;5014196;28;20038;-74
2023/03/16 00:44:40;;;;;;;16.90;6.18;;;;;;;-0.51;100.00;95830.94;5013110;28;20486;-75
2023/03/16 00:47:06;;;;;;;15.82;6.63;;;;;;;-0.51;100.00;95831.72;5031700;28;20100;-75
2023/03/16 00:49:34;;;;;;;17.10;6.70;;;;;;;-0.53;100.00;95839.66;5021070;28;20037;-74
2023/03/16 00:52:05;;;;;;;12.45;5.78;;;;;;;-0.58;100.00;95836.84;5021740;28;20041;-75
2023/03/16 00:54:32;;;;;;;12.70;6.22;;;;;;;-0.68;100.00;95841.56;5011638;28;20046;-75
2023/03/16 00:56:59;;;;;;;10.55;6.00;;;;;;;-0.71;100.00;95847.13;5030322;28;20033;-75
2023/03/16 00:59:25;;;;;;;12.10;5.30;;;;;;;-0.79;100.00;95836.94;5020549;28;20045;-75
2023/03/16 01:01:54;;;;;;;10.95;5.25;;;;;;;-0.91;100.00;95837.44;5018839;28;20033;-75
2023/03/16 01:04:21;;;;;;;10.43;4.78;;;;;;;-1.00;100.00;95837.81;5011166;28;20046;-74
2023/03/16 01:06:48;;;;;;;12.35;5.88;;;;;;;-0.94;100.00;95832.66;5027228;28;20409;-75
2023/03/16 01:09:14;;;;;;;10.48;4.63;;;;;;;-1.02;100.00;95838.00;5011376;28;20050;-75
2023/03/16 01:11:44;;;;;;;15.52;5.57;;;;;;;-1.12;100.00;95834.91;5027819;28;20497;-75
2023/03/16 01:14:10;;;;;;;14.27;6.32;;;;;;;-1.13;100.00;95838.50;5004896;28;20763;-74
2023/03/16 01:16:36;;;;;;;16.38;5.60;;;;;;;-1.14;100.00;95836.91;5026667;28;20698;-75
2023/03/16 01:19:02;;;;;;;14.57;6.30;;;;;;;-1.14;100.00;95826.56;5016318;28;20552;-74
2023/03/16 01:21:28;;;;;;;17.08;5.65;;;;;;;-1.07;100.00;95832.56;5016081;28;20038;-75
2023/03/16 01:23:53;;;;;;;16.77;6.32;;;;;;;-1.10;100.00;95825.22;5019393;28;20046;-75
2023/03/16 01:26:20;;;;;;;17.15;5.90;;;;;;;-1.01;100.00;95831.03;5022361;28;20402;-75
2023/03/16 01:28:47;;;;;;;12.23;5.93;;;;;;;-1.14;100.00;95832.53;5006543;28;20038;-75
2023/03/16 01:31:13;;;;;;;13.68;5.32;;;;;;;-1.19;100.00;95828.91;5019717;28;20104;-75
2023/03/16 01:33:40;;;;;;;11.48;5.72;;;;;;;-1.28;100.00;95834.22;5012997;28;20039;-74
2023/03/16 01:36:14;;;;;;;10.13;5.20;;;;;;;-1.25;100.00;95828.69;5022384;28;20042;-75
2023/03/16 01:38:39;;;;;;;12.57;5.22;;;;;;;-1.20;100.00;95828.09;5026703;28;20045;-74
2023/03/16 01:41:05;;;;;;;16.75;6.32;;;;;;;-1.11;100.00;95826.19;5022430;28;20045;-75
2023/03/16 01:43:33;;;;;;;12.90;5.72;;;;;;;-1.15;100.00;95825.78;5023537;28;20453;-75
2023/03/16 01:46:04;;;;;;;10.20;5.25;;;;;;;-1.19;100.00;95828.91;5022649;28;20095;-74
2023/03/16 01:48:41;;;;;;;12.95;5.85;;;;;;;-1.14;100.00;95826.56;5014677;28;20502;-74
2023/03/16 01:51:14;;;;;;;13.02;5.85;;;;;;;-1.23;100.00;95816.38;5022966;28;20041;-75
2023/03/16 01:53:44;;;;;;;12.60;6.27;;;;;;;-1.30;100.00;95807.78;5017487;28;20038;-75
2023/03/16 01:56:14;;;;;;;13.45;5.95;;;;;;;-1.27;100.00;95812.56;5023474;28;20290;-74
2023/03/16 01:58:42;;;;;;;14.35;5.68;;;;;;;-1.28;100.00;95805.00;5011722;28;20052;-74
2023/03/16 02:01:09;;;;;;;12.88;5.50;;;;;;;-1.25;100.00;95809.78;5014643;28;20046;-75
2023/03/16 02:03:35;;;;;;;12.57;5.47;;;;;;;-1.29;100.00;95814.53;5015996;28;20042;-73
2023/03/16 02:06:10;;;;;;;15.20;5.80;;;;;;;-1.37;100.00;95806.91;5018011;28;20417;-73
2023/03/16 02:08:38;;;;;;;12.35;5.82;;;;;;;-1.35;100.00;95814.47;5026326;28;20046;-73
2023/03/16 02:11:06;;;;;;;8.82;5.28;;;;;;;-1.40;100.00;95820.22;5030007;28;20046;-73
2023/03/16 02:13:35;;;;;;;15.63;6.03;;;;;;;-1.51;100.00;95810.38;5018675;28;20049;-74
2023/03/16 02:16:04;;;;;;;14.98;6.25;;;;;;;-1.51;100.00;95816.31;5014606;28;20049;-73
2023/03/16 02:18:30;;;;;;;12.05;5.45;;;;;;;-1.47;100.00;95819.34;5016587;28;20033;-73
2023/03/16 02:21:15;;;;;;;12.90;5.63;;;;;;;-1.53;100.00;95812.34;5014627;28;20477;-74
2023/03/16 02:23:43;;;;;;;13.40;6.00;;;;;;;-1.59;100.00;95808.72;5018877;28;20559;-74
2023/03/16 02:26:15;;;;;;;14.40;5.75;;;;;;;-1.59;100.00;95808.72;5017086;28;20056;-73
2023/03/16 02:29:12;;;;;;;13.18;5.55;;;;;;;-1.52;100.00;95808.78;5022353;28;20052;-73
2023/03/16 02:31:38;;;;;;;13.82;5.75;;;;;;;-1.69;100.00;95809.03;5015289;28;20045;-73
2023/03/16 02:34:05;;;;;;;10.82;5.30;;;;;;;-1.65;100.00;95802.53;5020106;28;20050;-73
2023/03/16 02:36:32;;;;;;;14.63;5.82;;;;;;;-1.66;100.00;95813.81;5019693;28;20048;-73
2023/03/16 02:38:58;;;;;;;13.45;5.85;;;;;;;-1.75;100.00;95814.94;5022945;28;20053;-73
2023/03/16 02:41:23;;;;;;;12.73;5.63;;;;;;;-1.80;100.00;95801.78;5023440;28;20045;-73
2023/03/16 02:44:23;;;;;;;9.77;5.15;;;;;;;-1.71;100.00;95816.19;5015541;28;20408;-73
2023/03/16 02:46:53;;;;;;;12.85;5.22;;;;;;;-1.64;100.00;95811.06;5015615;28;20120;-73
2023/03/16 02:49:26;;;;;;;14.20;5.03;;;;;;;-1.64;100.00;95806.72;5018571;28;20046;-73
2023/03/16 02:51:51;;;;;;;10.50;5.30;;;;;;;-1.54;100.00;95814.13;5001095;28;20057;-73
2023/03/16 02:54:17;;;;;;;11.60;5.07;;;;;;;-1.77;100.00;95814.31;5016053;28;20037;-73
2023/03/16 02:56:43;;;;;;;9.25;5.32;;;;;;;-1.82;100.00;95820.03;5025272;28;22365;-73
2023/03/16 02:59:08;;;;;;;10.07;5.18;;;;;;;-1.71;100.00;95815.34;5014032;28;20056;-73
2023/03/16 03:01:35;;;;;;;17.40;5.80;;;;;;;-1.72;100.00;95812.00;5017673;28;20473;-73
2023/03/16 03:04:02;;;;;;;12.82;5.10;;;;;;;-1.78;100.00;95810.13;5010549;28;20088;-73
2023/03/16 03:06:27;;;;;;;14.57;5.55;;;;;;;-1.79;100.00;95808.56;5016880;28;20584;-73
2023/03/16 03:08:53;;;;;;;11.02;5.03;;;;;;;-1.77;100.00;95801.41;5023270;28;20112;-73
2023/03/16 03:11:18;;;;;;;13.82;6.22;;;;;;;-1.77;100.00;95802.22;5022152;28;20394;-74
2023/03/16 03:13:46;;;;;;;13.18;5.78;;;;;;;-1.87;100.00;95806.09;5021795;28;20091;-73
2023/03/16 03:16:12;;;;;;;12.85;5.50;;;;;;;-2.14;100.00;95796.31;5022265;28;20042;-73
2023/03/16 03:18:38;;;;;;;12.88;5.15;;;;;;;-2.07;100.00;95791.19;5016190;28;20042;-74
2023/03/16 03:21:04;;;;;;;11.82;5.68;;;;;;;-1.94;100.00;95801.66;5011697;28;20469;-74
2023/03/16 03:23:30;;;;;;;14.18;5.90;;;;;;;-1.92;100.00;95799.69;5012246;28;20405;-74
2023/03/16 03:25:57;;;;;;;10.80;5.03;;;;;;;-1.94;100.00;95806.81;5018211;28;20041;-74
2023/03/16 03:28:23;;;;;;;9.95;5.22;;;;;;;-1.99;100.00;95803.97;5023947;28;20064;-74
2023/03/16 03:30:49;;;;;;;11.02;5.40;;;;;;;-1.96;100.00;95811.34;5008691;28;20034;-74
2023/03/16 03:33:14;;;;;;;13.82;5.35;;;;;;;-1.87;100.00;95800.91;5011761;28;20416;-74
2023/03/16 03:35:40;;;;;;;16.30;5.47;;;;;;;-1.81;100.00;95805.34;5016208;28;20042;-74
2023/03/16 03:38:07;;;;;;;17.55;5.93;;;;;;;-1.76;100.00;95805.59;5016677;28;20053;-74
2023/03/16 03:40:33;;;;;;;13.32;5.93;;;;;;;-1.86;100.00;95802.53;5013245;28;20046;-74
2023/03/16 03:43:00;;;;;;;12.20;5.30;;;;;;;-1.98;100.00;95799.63;5012943;28;20050;-75
2023/03/16 03:45:26;;;;;;;11.32;5.30;;;;;;;-1.83;100.00;95807.31;5008705;28;20042;-75
2023/03/16 03:47:53;;;;;;;14.27;5.43;;;;;;;-1.80;100.00;95806.94;5022043;28;20033;-75
2023/03/16 03:50:20;;;;;;;12.30;5.40;;;;;;;-1.83;100.00;95802.16;5018399;28;20046;-75
2023/03/16 03:52:46;;;;;;;12.18;5.90;;;;;;;-1.86;100.00;95798.16;5018591;28;20049;-75
2023/03/16 03:55:12;;;;;;;13.10;5.40;;;;;;;-1.88;100.00;95799.31;5017887;28;20708;-75
2023/03/16 03:57:38;;;;;;;11.88;5.97;;;;;;;-1.97;100.00;95801.22;5011140;28;20070;-75
2023/03/16 04:00:10;;;;;;;12.23;5.82;;;;;;;-1.90;100.00;95794.34;5002873;28;20521;-75
2023/03/16 04:02:37;;;;;;;16.15;6.35;;;;;;;-1.95;100.00;95800.06;5015830;28;20064;-75
2023/03/16 04:05:03;;;;;;;14.13;5.90;;;;;;;-1.93;100.00;95787.75;5014735;28;20042;-74
2023/03/16 04:07:28;;;;;;;12.77;6.65;;;;;;;-1.92;100.00;95791.94;5018429;28;20053;-74
2023/03/16 04:09:54;;;;;;;13.30;6.05;;;;;;;-1.90;100.00;95786.59;5018485;28;20042;-75
2023/03/16 04:12:19;;;;;;;12.70;6.00;;;;;;;-1.95;100.00;95784.59;5010523;28;20125;-74
2023/03/16 04:14:45;;;;;;;11.32;6.00;;;;;;;-1.93;100.00;95790.34;5021817;28;20042;-74
2023/03/16 04:17:11;;;;;;;14.90;6.65;;;;;;;-1.90;100.00;95790.97;5016829;28;20041;-74
2023/03/16 04:19:36;;;;;;;13.13;6.25;;;;;;;-1.99;100.00;95787.72;5021488;28;20091;-74
2023/03/16 04:22:02;;;;;;;11.98;5.95;;;;;;;-2.02;100.00;95794.03;5023379;28;20037;-75
2023/03/16 04:24:27;;;;;;;14.27;6.35;;;;;;;-2.10;100.00;95796.72;5014521;28;20045;-74
2023/03/16 04:26:53;;;;;;;17.20;6.32;;;;;;;-2.09;100.00;95798.31;5028016;28;20037;-74
2023/03/16 04:29:19;;;;;;;14.15;6.15;;;;;;;-2.08;100.00;95797.34;5014775;28;20416;-74
2023/03/16 04:31:45;;;;;;;12.20;5.93;;;;;;;-1.97;100.00;95801.22;5024616;28;20493;-74
2023/03/16 04:34:11;;;;;;;14.85;6.43;;;;;;;-1.96;100.00;95808.78;5022349;28;20497;-74
2023/03/16 04:36:37;;;;;;;14.77;6.40;;;;;;;-1.96;100.00;95813.13;5023969;28;20052;-74
2023/03/16 04:39:04;;;;;;;15.65;5.72;;;;;;;-1.99;100.00;95819.47;5023260;28;20041;-74
2023/03/16 04:41:30;;;;;;;13.50;6.22;;;;;;;-2.01;100.00;95810.28;5020936;28;20169;-74
2023/03/16 04:43:56;;;;;;;13.25;6.13;;;;;;;-2.11;100.00;95811.41;5018867;28;20444;-74
2023/03/16 04:46:22;;;;;;;12.88;6.10;;;;;;;-2.00;100.00;95804.94;5026401;28;20416;-74
2023/03/16 04:48:48;;;;;;;14.50;6.30;;;;;;;-2.10;100.00;95802.69;5012079;28;20072;-74
2023/03/16 04:51:14;;;;;;;15.35;6.15;;;;;;;-2.16;100.00;95797.47;5020778;28;20046;-74
2023/03/16 04:53:39;;;;;;;13.25;6.30;;;;;;;-2.17;100.00;95793.28;5010625;28;20046;-73
2023/03/16 04:56:06;;;;;;;12.15;5.47;;;;;;;-2.25;100.00;95795.97;5020315;28;20076;-73
2023/03/16 04:58:32;;;;;;;11.88;5.80;;;;;;;-2.20;100.00;95801.38;5010997;28;20045;-74
2023/03/16 05:00:57;;;;;;;15.43;6.63;;;;;;;-2.17;100.00;95793.28;5026375;28;20409;-73
2023/03/16 05:03:23;;;;;;;10.63;5.75;;;;;;;-2.12;100.00;95788.38;5009434;28;20046;-74
2023/03/16 05:05:49;;;;;;;17.38;6.10;;;;;;;-2.22;100.00;95782.72;5024442;28;20496;-73
2023/03/16 05:08:15;;;;;;;10.77;5.53;;;;;;;-2.21;100.00;95781.72;5020981;28;20045;-73
2023/03/16 05:10:41;;;;;;;14.75;6.95;;;;;;;-2.21;100.00;95777.38;5026621;28;20572;-73
2023/03/16 05:13:07;;;;;;;11.73;6.30;;;;;;;-2.36;100.00;95782.56;5018037;28;20045;-74
2023/03/16 05:15:33;;;;;;;16.05;6.95;;;;;;;-2.22;100.00;95772.41;5022193;28;20038;-74
2023/03/16 05:17:58;;;;;;;12.75;6.70;;;;;;;-2.23;100.00;95776.75;5024967;28;20041;-74
2023/03/16 05:20:24;;;;;;;13.15;6.43;;;;;;;-2.23;100.00;95770.81;5023296;28;20129;-74
2023/03/16 05:22:50;;;;;;;13.98;6.57;;;;;;;-2.21;100.00;95769.66;5012395;28;20041;-74
2023/03/16 05:25:17;;;;;;;15.60;6.97;;;;;;;-2.39;100.00;95770.03;5024571;28;20049;-74
2023/03/16 05:27:45;;;;;;;14.93;7.35;;;;;;;-2.37;100.00;95767.28;5014420;28;20049;-74
2023/03/16 05:30:12;;;;;;;13.55;7.13;;;;;;;-2.28;100.00;95769.56;5020307;28;20042;-75
2023/03/16 05:32:38;;;;;;;16.27;7.30;;;;;;;-2.24;100.00;95764.03;5014122;28;20503;-73
2023/03/16 05:35:06;;;;;;;15.95;7.75;;;;;;;-2.14;100.00;95761.97;5021687;28;20046;-73
2023/03/16 05:37:31;;;;;;;16.73;7.57;;;;;;;-2.17;100.00;95760.56;5018495;28;20113;-73
2023/03/16 05:39:57;;;;;;;19.05;8.88;;;;;;;-2.18;100.00;95773.66;5024687;28;20053;-73
2023/03/16 05:42:25;;;;;;;18.67;9.35;;;;;;;-2.11;100.00;95766.78;5022757;28;20497;-73
2023/03/16 05:44:52;;;;;;;18.30;8.98;;;;;;;-2.11;100.00;95759.03;5019744;28;20042;-72
2023/03/16 05:47:18;;;;;;;18.95;8.57;;;;;;;-1.99;100.00;95767.88;5016323;28;20073;-73
2023/03/16 05:49:44;;;;;;;21.83;9.43;;;;;;;-2.07;100.00;95765.41;5018269;28;20103;-73
2023/03/16 05:52:10;;;;;;;21.92;9.77;;;;;;;-2.05;100.00;95768.63;5024894;28;20041;-73
2023/03/16 05:54:36;;;;;;;20.58;9.90;;;;;;;-2.02;100.00;95763.09;5010369;28;20042;-73
2023/03/16 05:57:01;;;;;;;23.15;9.45;;;;;;;-2.05;100.00;95758.31;5023611;28;20497;-73
2023/03/16 05:59:27;;;;;;;21.90;9.68;;;;;;;-1.99;100.00;95762.72;5012311;28;20533;-74
2023/03/16 06:01:52;;;;;;;23.02;10.35;;;;;;;-1.94;100.00;95768.13;5014034;28;20041;-75
2023/03/16 06:04:18;;;;;;;21.35;10.10;;;;;;;-1.93;100.00;95772.28;5004894;28;20049;-74
2023/03/16 06:06:44;;;;;;;21.92;9.52;;;;;;;-1.89;100.00;95772.72;5007913;28;20038;-74
2023/03/16 06:09:09;;;;;;;21.08;10.15;;;;;;;-1.89;100.00;95766.78;5010393;28;20057;-75
2023/03/16 06:11:35;;;;;;;28.50;11.52;;;;;;;-1.85;100.00;95762.81;5012800;28;20096;-74
2023/03/16 06:14:01;;;;;;;27.38;11.40;;;;;;;-1.76;100.00;95757.38;5010014;28;20456;-75
2023/03/16 06:16:26;;;;;;;31.00;12.73;;;;;;;-1.72;100.00;95762.97;5014641;28;20061;-76
2023/03/16 06:18:52;;;;;;;29.42;12.25;;;;;;;-1.73;100.00;95771.69;5029882;28;20033;-75
2023/03/16 06:21:18;;;;;;;30.65;12.73;;;;;;;-1.55;100.00;95775.59;5017437;28;20430;-75
2023/03/16 06:23:43;;;;;;;29.33;12.80;;;;;;;-1.62;100.00;95773.75;5013869;28;20045;-77
2023/03/16 06:26:09;;;;;;;26.90;12.00;;;;;;;-1.56;100.00;95774.81;5022019;28;20057;-79
2023/03/16 06:28:35;;;;;;;29.45;12.35;;;;;;;-1.48;100.00;95772.09;5015433;28;20064;-77
2023/03/16 06:31:00;;;;;;;26.98;10.93;;;;;;;-1.44;100.00;95775.09;5025965;28;20144;-77
2023/03/16 06:33:26;;;;;;;32.33;12.63;;;;;;;-1.39;100.00;95780.50;5010575;28;20045;-77
2023/03/16 06:35:52;;;;;;;32.15;12.38;;;;;;;-1.45;100.00;95773.47;5014602;28;20041;-78
2023/03/16 06:38:18;;;;;;;32.42;12.77;;;;;;;-1.43;100.00;95776.69;5012818;28;20045;-77
2023/03/16 06:40:43;;;;;;;29.13;13.07;;;;;;;-1.33;100.00;95792.66;5016033;28;20044;-78
2023/03/16 06:43:09;;;;;;;33.47;12.93;;;;;;;-1.35;100.00;95779.16;5020174;28;20049;-77
2023/03/16 06:45:34;;;;;;;32.42;14.30;;;;;;;-1.28;100.00;95780.00;5024724;28;20045;-78
2023/03/16 06:48:00;;;;;;;35.63;13.82;;;;;;;-1.23;100.00;95793.13;5016000;28;20033;-76
2023/03/16 06:50:27;;;;;;;36.47;13.32;;;;;;;-1.20;100.00;95793.75;5017496;28;20045;-76
2023/03/16 06:52:52;;;;;;;37.22;15.82;;;;;;;-1.17;100.00;95775.28;5020700;28;20038;-77
2023/03/16 06:55:18;;;;;;;31.70;13.00;;;;;;;-1.09;100.00;95777.72;5009067;28;20122;-75
2023/03/16 06:57:43;;;;;;;31.42;12.52;;;;;;;-1.10;100.00;95781.28;5011796;28;20099;-76
2023/03/16 07:00:12;;;;;;;28.00;12.02;;;;;;;-1.03;100.00;95776.16;5007733;28;20034;-75
2023/03/16 07:02:39;;;;;;;26.90;11.27;;;;;;;-0.97;100.00;95781.38;5013839;28;20045;-74
2023/03/16 07:05:23;;;;;;;30.20;11.32;;;;;;;-0.87;100.00;95781.81;5008910;28;20076;-70
2023/03/16 07:07:49;;;;;;;21.73;10.20;;;;;;;-0.80;100.00;95781.09;5015029;28;20065;-70
2023/03/16 07:10:17;;;;;;;28.92;12.48;;;;;;;-0.78;100.00;95776.50;5016942;28;20037;-70
2023/03/16 07:12:43;;;;;;;25.70;11.52;;;;;;;-0.56;100.00;95767.66;5010951;28;20041;-75
2023/03/16 07:15:10;;;;;;;29.40;12.57;;;;;;;-0.63;100.00;95772.00;5020116;28;20038;-72
2023/03/16 07:17:37;;;;;;;38.30;13.82;;;;;;;-0.65;100.00;95768.81;5016671;28;20049;-74
2023/03/16 07:20:04;;;;;;;29.75;12.73;;;;;;;-0.57;100.00;95760.13;5010428;28;20577;-74
2023/03/16 07:22:31;;;;;;;33.53;13.13;;;;;;;-0.55;100.00;95769.28;5008110;28;20524;-74
2023/03/16 07:24:57;;;;;;;33.53;13.77;;;;;;;-0.50;100.00;95770.47;5009635;28;20494;-74
2023/03/16 07:27:23;;;;;;;31.35;13.38;;;;;;;-0.48;100.00;95768.50;5008169;28;20115;-73
2023/03/16 07:29:51;;;;;;;31.92;13.25;;;;;;;-0.53;100.00;95772.44;5007544;28;20133;-73
2023/03/16 07:32:17;;;;;;;29.67;14.15;;;;;;;-0.62;100.00;95768.41;5008455;28;20053;-74
2023/03/16 07:34:42;;;;;;;28.90;12.23;;;;;;;-0.58;100.00;95779.97;5006730;28;20039;-73
2023/03/16 07:37:10;;;;;;;32.47;12.15;;;;;;;-0.55;100.00;95773.63;5008703;28;20065;-73
2023/03/16 07:39:36;;;;;;;33.17;12.10;;;;;;;-0.58;100.00;95774.81;5017677;28;20041;-73
2023/03/16 07:42:02;;;;;;;28.75;10.48;;;;;;;-0.71;100.00;95779.91;5009528;28;20042;-73
2023/03/16 07:44:28;;;;;;;23.38;10.88;;;;;;;-0.68;100.00;95789.88;5012501;28;20050;-73
2023/03/16 07:46:54;;;;;;;31.98;13.70;;;;;;;-0.55;100.00;95795.13;5014771;28;20049;-73
2023/03/16 07:49:20;;;;;;;27.23;12.68;;;;;;;-0.58;100.00;95785.16;5009967;28;20037;-74
2023/03/16 07:51:45;;;;;;;28.38;11.45;;;;;;;-0.55;100.00;95789.13;5008666;28;20034;-74
2023/03/16 07:54:12;;;;;;;35.70;12.77;;;;;;;-0.37;100.00;95791.22;5012244;28;20042;-74
2023/03/16 07:56:38;;;;;;;39.40;13.45;;;;;;;-0.37;100.00;95791.22;5015667;28;20033;-73
2023/03/16 07:59:04;;;;;;;26.95;11.85;;;;;;;-0.46;100.00;95792.34;5020748;28;20045;-73
2023/03/16 08:01:30;;;;;;;30.05;13.38;;;;;;;-0.30;100.00;95792.03;5014595;28;20139;-73
2023/03/16 08:03:56;;;;;;;28.85;12.32;;;;;;;-0.23;100.00;95792.84;5014769;28;20045;-73
2023/03/16 08:06:24;;;;;;;29.27;13.00;;;;;;;-0.20;100.00;95797.63;5013722;28;20081;-73
2023/03/16 08:08:50;;;;;;;30.20;11.88;;;;;;;-0.13;100.00;95796.84;5007574;28;20456;-73
2023/03/16 08:11:22;;;;;;;30.77;13.40;;;;;;;-0.08;100.00;95800.44;5020333;28;20048;-73
2023/03/16 08:13:52;;;;;;;36.60;13.25;;;;;;;0.02;100.00;95810.44;5013557;28;20117;-73
2023/03/16 08:16:23;;;;;;;29.98;12.30;;;;;;;-0.01;100.00;95813.41;5014230;28;20048;-73
2023/03/16 08:18:50;;;;;;;28.25;12.32;;;;;;;-0.01;100.00;95810.84;5016321;28;20091;-73
2023/03/16 08:21:17;;;;;;;26.27;11.82;;;;;;;0.04;100.00;95818.78;5010360;28;20108;-73
2023/03/16 08:23:48;;;;;;;26.45;11.70;;;;;;;0.06;100.00;95816.81;5011659;28;20095;-73
2023/03/16 08:26:18;;;;;;;29.02;11.63;;;;;;;0.22;100.00;95820.06;5012023;28;20053;-73
2023/03/16 08:28:45;;;;;;;29.33;12.40;;;;;;;0.39;100.00;95816.09;5010567;28;20505;-73
2023/03/16 08:31:12;;;;;;;32.20;12.13;;;;;;;0.39;100.00;95808.31;5010519;28;20497;-73
2023/03/16 08:33:40;;;;;;;26.33;11.43;;;;;;;0.44;100.00;95813.69;5015449;28;20046;-73
2023/03/16 08:36:07;;;;;;;29.17;12.90;;;;;;;0.61;100.00;95813.31;5013678;28;20124;-73
2023/03/16 08:38:33;;;;;;;31.35;13.00;;;;;;;0.84;100.00;95813.72;5014539;28;20045;-73
2023/03/16 08:41:00;;;;;;;26.42;12.05;;;;;;;0.81;100.00;95813.31;5013577;28;20034;-73
2023/03/16 08:43:26;;;;;;;29.65;12.65;;;;;;;0.89;100.00;95814.91;5010201;28;20172;-73
2023/03/16 08:45:54;;;;;;;26.35;11.30;;;;;;;0.81;100.00;95803.75;5012965;28;20064;-73
2023/03/16 08:48:21;;;;;;;28.40;12.15;;;;;;;0.96;100.00;95802.75;5013062;28;20046;-73
2023/03/16 08:50:47;;;;;;;25.35;11.07;;;;;;;1.02;100.00;95809.69;5011871;28;20042;-73
2023/03/16 08:53:13;;;;;;;25.52;11.48;;;;;;;1.25;100.00;95803.28;5012214;28;20042;-74
2023/03/16 08:55:40;;;;;;;22.60;10.95;;;;;;;1.15;100.00;95804.53;5018408;28;20041;-74
2023/03/16 08:58:07;;;;;;;30.85;12.20;;;;;;;1.26;100.00;95799.72;5019288;28;20038;-73
2023/03/16 09:00:41;;;;;;;;;;;;;;;1.12;100.00;95802.34;5013461;28;20748;-74
2023/03/16 09:03:07;;;;;;;31.45;11.07;;;;;;;1.11;100.00;95803.31;5012684;28;19921;-74
2023/03/16 09:05:33;;;;;;;29.38;11.38;;;;;;;1.30;100.00;95800.91;5010600;28;20069;-74
2023/03/16 09:07:59;;;;;;;29.40;12.40;;;;;;;1.46;100.00;95794.47;5017300;28;20046;-74
2023/03/16 09:10:26;;;;;;;26.00;10.98;;;;;;;1.62;100.00;95798.41;5012249;28;20041;-73
2023/03/16 09:12:52;;;;;;;34.58;11.80;;;;;;;1.80;100.00;95790.75;5000750;28;20519;-74
2023/03/16 09:15:20;;;;;;;31.90;12.10;;;;;;;1.90;100.00;95796.28;5016771;28;20041;-74
2023/03/16 09:17:46;;;;;;;30.00;12.30;;;;;;;2.05;100.00;95797.81;5015302;28;20558;-74
2023/03/16 09:20:19;;;;;;;28.52;11.68;;;;;;;2.63;100.00;95793.44;5016836;28;20038;-74
2023/03/16 09:22:47;;;;;;;28.55;12.07;;;;;;;2.67;100.00;95794.59;5013879;28;20517;-73
2023/03/16 09:25:13;;;;;;;31.00;12.68;;;;;;;2.87;100.00;95803.03;5012100;28;20125;-73
2023/03/16 09:27:39;;;;;;;32.25;11.98;;;;;;;2.88;100.00;95796.03;5014657;28;20566;-74
2023/03/16 09:30:07;;;;;;;32.22;11.68;;;;;;;3.01;100.00;95800.34;5010297;28;20084;-74
2023/03/16 09:32:33;;;;;;;32.90;12.57;;;;;;;2.88;100.00;95807.22;5016910;28;20046;-74
2023/03/16 09:34:59;;;;;;;36.35;14.00;;;;;;;2.81;100.00;95806.50;5008586;28;20176;-74
2023/03/16 09:37:25;;;;;;;32.90;12.80;;;;;;;2.79;100.00;95808.53;5015196;28;20520;-73
2023/03/16 09:39:51;;;;;;;31.20;12.18;;;;;;;2.81;100.00;95806.50;5022620;28;20034;-73
2023/03/16 09:42:32;;;;;;;31.88;12.82;;;;;;;2.98;100.00;95805.97;5011884;28;20042;-75
2023/03/16 09:45:08;;;;;;;34.10;12.43;;;;;;;2.95;100.00;95807.97;5016721;28;20044;-74
2023/03/16 09:47:35;;;;;;;35.40;13.68;;;;;;;3.07;100.00;95799.47;5013110;28;20069;-74
2023/03/16 09:50:05;;;;;;;35.65;12.15;;;;;;;3.26;100.00;95808.91;5022051;28;20041;-74
2023/03/16 09:52:43;;;;;;;30.10;12.13;;;;;;;3.36;100.00;95798.00;5009550;28;20038;-74
2023/03/16 09:55:30;;;;;;;21.85;10.00;;;;;;;3.18;100.00;95809.16;5014022;28;20052;-74
2023/03/16 09:57:58;;;;;;;26.38;9.65;;;;;;;3.16;100.00;95802.59;5015715;28;20121;-74
2023/03/16 10:00:37;;;;;;;32.83;11.80;;;;;;;3.70;100.00;95801.00;5009171;28;20045;-74
2023/03/16 10:03:24;;;;;;;32.10;12.10;;;;;;;3.93;100.00;95795.13;5006353;28;20410;-74
2023/03/16 10:06:00;;;;;;;32.80;11.93;;;;;;;3.81;100.00;95797.69;5004847;28;20115;-74
2023/03/16 10:08:36;;;;;;;29.17;11.95;;;;;;;4.31;100.00;95783.59;5009906;28;20046;-74
2023/03/16 10:11:18;;;;;;;25.52;11.13;;;;;;;4.49;100.00;95789.75;5008974;28;20137;-74
2023/03/16 10:14:24;;;;;;;30.15;12.52;;;;;;;5.12;100.00;95790.19;5007912;28;20045;-74
2023/03/16 10:17:00;;;;;;;28.63;12.57;;;;;;;5.15;100.00;95787.09;5009927;28;20046;-74
2023/03/16 10:19:56;;;;;;;27.83;12.00;;;;;;;5.88;100.00;95780.50;5009885;28;20563;-74
2023/03/16 10:22:26;;;;;;;26.17;11.13;;;;;;;6.41;100.00;95778.59;5018339;28;20057;-74
2023/03/16 10:25:06;;;;;;;29.92;12.82;;;;;;;6.25;100.00;95784.59;5003212;28;20490;-74
2023/03/16 10:27:35;;;;;;;29.30;11.82;;;;;;;5.62;100.00;95778.44;5010776;28;20082;-75
2023/03/16 10:30:03;;;;;;;30.23;11.93;;;;;;;6.07;100.00;95782.97;5008779;28;20129;-74
2023/03/16 10:32:33;;;;;;;31.23;12.40;;;;;;;5.52;100.00;95776.41;5016281;28;20038;-74
2023/03/16 10:35:36;;;;;;;31.77;13.68;;;;;;;5.82;100.00;95775.41;5012254;28;20038;-74
2023/03/16 10:38:02;;;;;;;31.10;12.38;;;;;;;6.93;100.00;95758.47;5015589;28;20080;-73
2023/03/16 10:40:32;;;;;;;31.25;11.68;;;;;;;7.44;100.00;95764.41;5011131;28;20038;-73
2023/03/16 10:43:05;;;;;;;28.67;13.10;;;;;;;7.75;100.00;95764.75;5015268;28;20045;-73
2023/03/16 10:45:34;;;;;;;31.15;11.77;;;;;;;8.06;100.00;95765.09;5017677;28;20059;-73
2023/03/16 10:48:15;;;;;;;29.92;11.80;;;;;;;8.40;100.00;95754.41;5013947;28;20033;-73
2023/03/16 10:50:43;;;;;;;32.08;12.57;;;;;;;8.35;100.00;95757.00;5009554;28;20069;-73
2023/03/16 10:53:18;;;;;;;29.02;12.02;;;;;;;8.45;100.00;95751.88;5013809;28;20050;-73
2023/03/16 10:55:47;;;;;;;30.35;12.93;;;;;;;8.37;100.00;95748.88;5015458;28;20184;-73
2023/03/16 10:58:26;;;;;;;29.83;11.90;;;;;;;8.00;100.00;95749.56;5005878;28;20042;-73
2023/03/16 11:00:52;;;;;;;34.08;13.15;;;;;;;8.36;100.00;95748.09;5001845;28;20060;-73
2023/03/16 11:03:40;;;;;;;30.85;12.50;;;;;;;8.61;100.00;95739.66;5012466;28;20053;-73
2023/03/16 11:06:16;;;;;;;31.15;12.55;;;;;;;8.46;100.00;95748.22;5012296;28;20042;-73
2023/03/16 11:08:44;;;;;;;28.00;11.90;;;;;;;9.08;100.00;95740.78;5011090;28;20041;-73
2023/03/16 11:11:32;;;;;;;26.90;11.73;;;;;;;8.86;100.00;95740.09;5010895;28;20042;-73
2023/03/16 11:14:01;;;;;;;29.27;11.88;;;;;;;9.61;100.00;95734.72;5018723;28;20042;-73
2023/03/16 11:16:43;;;;;;;37.65;12.05;;;;;;;10.05;100.00;95731.69;5014567;28;20049;-73
2023/03/16 11:19:45;;;;;;;26.85;12.57;;;;;;;8.43;100.00;95722.47;5015480;28;20089;-73
2023/03/16 11:22:16;;;;;;;27.38;12.13;;;;;;;9.41;100.00;95715.22;5009622;28;20108;-73